Time;durP1;ratioP1;P1;durP2;ratioP2;P2;SDS_P1;SDS_P2;PMS_P1;PMS_P2;Temp;Humidity;BMP_temperature;BMP_pressure;BME280_temperature;BME280_humidity;BME280_pressure;Samples;Min_cycle;Max_cycle;Signal;HPM_P1;HPM_P2
2023/03/03 00:01:54;;;;;;;5.10;3.50;;;5.30;86.50;;;5.17;nan;100964.50;4991277;28;20226;-67
2023/03/03 00:04:21;;;;;;;3.40;3.00;;;5.20;87.30;;;5.16;nan;100961.09;4991565;28;20261;-66
2023/03/03 00:06:47;;;;;;;5.60;3.78;;;5.30;87.60;;;5.13;nan;100962.97;4992047;28;20282;-67
2023/03/03 00:09:14;;;;;;;7.63;3.80;;;5.20;87.70;;;5.09;nan;100961.44;4993320;28;20208;-67
2023/03/03 00:11:41;;;;;;;5.22;2.60;;;5.20;88.30;;;5.07;nan;100963.25;4992174;28;20239;-67
2023/03/03 00:14:32;;;;;;;5.82;3.85;;;5.10;88.80;;;5.01;nan;100966.94;5002262;28;20213;-67
2023/03/03 00:17:32;;;;;;;5.88;3.58;;;5.10;89.30;;;4.98;nan;100969.66;4984144;28;20204;-67
2023/03/03 00:20:02;;;;;;;5.88;4.20;;;5.10;89.50;;;4.90;nan;100970.91;4988021;28;20227;-67
2023/03/03 00:22:35;;;;;;;7.80;4.65;;;5.00;90.10;;;4.83;nan;100969.47;4992317;28;20664;-67
2023/03/03 00:25:27;;;;;;;5.28;3.60;;;4.90;90.00;;;4.80;nan;100967.00;4991356;28;20684;-67
2023/03/03 00:27:54;;;;;;;6.22;4.03;;;4.90;90.10;;;4.77;nan;100975.72;4993296;28;20211;-68
2023/03/03 00:30:26;;;;;;;4.95;3.65;;;4.90;90.00;;;4.76;nan;100975.81;4990649;28;20227;-67
2023/03/03 00:32:54;;;;;;;7.00;4.43;;;4.80;90.00;;;4.72;nan;100973.38;4983231;28;20277;-67
2023/03/03 00:35:25;;;;;;;7.45;4.20;;;4.80;89.70;;;4.72;nan;100977.69;4979141;28;20208;-67
2023/03/03 00:37:58;;;;;;;6.07;3.85;;;4.80;89.80;;;4.72;nan;100975.09;4981865;28;20659;-67
2023/03/03 00:40:34;;;;;;;4.72;3.70;;;4.80;89.90;;;4.72;nan;100967.34;4970343;28;20374;-67
2023/03/03 00:43:14;;;;;;;6.78;4.18;;;4.80;90.10;;;4.72;nan;100977.69;4991486;28;20205;-67
2023/03/03 00:45:51;;;;;;;5.63;3.90;;;4.80;90.20;;;4.72;nan;100981.13;4991570;28;20211;-68
2023/03/03 00:48:50;;;;;;;5.22;3.60;;;4.80;90.20;;;4.69;nan;100977.81;4992093;28;20206;-67
2023/03/03 00:51:36;;;;;;;6.93;4.28;;;4.80;90.30;;;4.67;nan;100985.63;4989835;28;20241;-67
2023/03/03 00:54:03;;;;;;;4.97;3.70;;;4.80;90.70;;;4.67;nan;100985.63;4991283;28;20219;-67
2023/03/03 00:56:30;;;;;;;9.18;3.92;;;4.80;90.90;;;4.67;nan;100990.81;4989437;28;20203;-64
2023/03/03 00:58:57;;;;;;;4.50;3.40;;;4.80;91.00;;;4.68;nan;100989.06;4980597;28;20231;-66
2023/03/03 01:01:24;;;;;;;8.90;3.92;;;4.80;91.10;;;4.68;nan;100986.47;4990670;28;20607;-66
2023/03/03 01:03:51;;;;;;;5.57;3.95;;;4.80;91.20;;;4.64;nan;100990.09;4981423;28;20258;-66
2023/03/03 01:06:20;;;;;;;9.73;4.70;;;4.70;91.30;;;4.63;nan;100991.84;4987556;28;20289;-65
2023/03/03 01:08:47;;;;;;;6.22;4.05;;;4.70;91.40;;;4.62;nan;100992.72;4991003;28;20593;-65
2023/03/03 01:11:24;;;;;;;6.68;3.97;;;4.70;91.40;;;4.60;nan;100999.72;4990405;28;20605;-65
2023/03/03 01:13:52;;;;;;;8.93;4.63;;;4.70;91.50;;;4.56;nan;100986.97;4991003;28;20207;-66
2023/03/03 01:16:20;;;;;;;6.05;3.90;;;4.60;91.60;;;4.53;nan;100995.72;4989435;28;20211;-65
2023/03/03 01:18:47;;;;;;;6.32;4.38;;;4.60;91.80;;;4.49;nan;100990.75;4992646;28;20219;-65
2023/03/03 01:21:13;;;;;;;7.43;4.57;;;4.60;91.90;;;4.44;nan;100996.09;4995668;28;20223;-67
2023/03/03 01:23:40;;;;;;;9.95;4.70;;;4.50;92.00;;;4.39;nan;100990.25;4994085;28;20207;-66
2023/03/03 01:26:07;;;;;;;7.47;4.43;;;4.50;92.50;;;4.34;nan;100997.38;4981978;28;20203;-66
2023/03/03 01:28:35;;;;;;;7.57;4.50;;;4.40;92.50;;;4.32;nan;101001.72;4980438;28;20684;-66
2023/03/03 01:31:04;;;;;;;5.10;3.90;;;4.40;92.60;;;4.32;nan;101001.72;4991208;28;20281;-66
2023/03/03 01:33:32;;;;;;;7.13;3.90;;;4.40;92.80;;;4.32;nan;101000.91;4986616;28;20665;-67
2023/03/03 01:36:00;;;;;;;7.07;4.40;;;4.40;92.80;;;4.29;nan;100995.88;4988750;28;20674;-67
2023/03/03 01:38:27;;;;;;;8.38;4.57;;;4.40;93.10;;;4.25;nan;100996.88;5008769;28;20604;-66
2023/03/03 01:40:58;;;;;;;5.93;4.50;;;4.40;93.30;;;4.21;nan;100998.75;4992830;28;20235;-67
2023/03/03 01:43:28;;;;;;;6.28;4.20;;;4.30;93.60;;;4.14;nan;100996.47;4993467;28;20811;-67
2023/03/03 01:45:58;;;;;;;5.38;4.53;;;4.20;93.90;;;4.09;nan;100999.22;4993848;28;20207;-66
2023/03/03 01:48:33;;;;;;;7.35;4.95;;;4.20;94.30;;;4.03;nan;100996.91;4991972;28;20277;-67
2023/03/03 01:51:12;;;;;;;6.00;3.95;;;4.10;94.70;;;4.04;nan;100988.25;4995240;28;20296;-67
2023/03/03 01:53:47;;;;;;;6.60;4.05;;;4.10;94.90;;;4.05;nan;100979.59;4991314;28;20734;-66
2023/03/03 01:56:15;;;;;;;7.28;5.05;;;4.10;95.00;;;4.00;nan;100985.84;4991519;28;20209;-67
2023/03/03 01:59:13;;;;;;;7.00;4.40;;;4.00;95.40;;;3.99;nan;100990.19;4987845;28;20227;-67
2023/03/03 02:01:41;;;;;;;8.85;5.13;;;4.10;95.50;;;3.99;nan;100982.44;4991413;28;20281;-68
2023/03/03 02:04:08;;;;;;;6.78;4.65;;;4.10;95.70;;;3.99;nan;100982.44;4991161;28;20207;-69
2023/03/03 02:06:53;;;;;;;6.18;4.20;;;4.10;95.80;;;3.94;nan;100974.00;4991669;28;20203;-68
2023/03/03 02:09:26;;;;;;;6.50;4.72;;;4.00;96.20;;;3.91;nan;100976.72;4990074;28;20220;-67
2023/03/03 02:11:58;;;;;;;7.32;3.88;;;4.00;96.70;;;3.85;nan;100974.41;4989888;28;20237;-66
2023/03/03 02:14:25;;;;;;;8.63;4.95;;;4.00;97.10;;;3.84;nan;100972.69;4991643;28;20214;-66
2023/03/03 02:16:52;;;;;;;5.80;4.63;;;4.00;97.40;;;3.83;nan;100978.78;4991359;28;20204;-65
2023/03/03 02:19:40;;;;;;;6.55;4.28;;;3.90;97.60;;;3.79;nan;100972.88;4990181;28;20219;-66
2023/03/03 02:22:07;;;;;;;5.00;3.88;;;3.90;98.10;;;3.78;nan;100970.34;4982084;28;20219;-67
2023/03/03 02:24:45;;;;;;;7.20;3.90;;;3.90;98.40;;;3.80;nan;100978.88;4987051;28;20211;-66
2023/03/03 02:27:13;;;;;;;6.72;4.30;;;3.90;98.60;;;3.80;nan;100982.31;4984270;28;20668;-65
2023/03/03 02:29:40;;;;;;;6.03;4.55;;;3.90;98.80;;;3.78;nan;100983.25;4994891;28;20268;-66
2023/03/03 02:32:07;;;;;;;6.90;4.60;;;3.90;99.20;;;3.75;nan;100991.97;4994651;28;20237;-67
2023/03/03 02:34:49;;;;;;;8.30;4.60;;;3.90;99.60;;;3.75;nan;100988.53;4991041;28;20233;-66
2023/03/03 02:37:18;;;;;;;6.25;4.47;;;3.80;99.90;;;3.74;nan;100984.28;4993971;28;20210;-66
2023/03/03 02:39:45;;;;;;;8.10;4.40;;;3.90;99.90;;;3.76;nan;100988.50;4993673;28;20215;-66
2023/03/03 02:42:28;;;;;;;6.45;3.85;;;3.90;99.90;;;3.75;nan;100986.81;4984330;28;20223;-67
2023/03/03 02:44:55;;;;;;;7.18;4.38;;;3.90;99.90;;;3.74;nan;100989.44;4987637;28;20206;-65
2023/03/03 02:47:22;;;;;;;8.45;3.92;;;3.90;99.90;;;3.72;nan;100986.09;4994113;28;20207;-66
2023/03/03 02:49:49;;;;;;;6.78;4.47;;;3.80;99.90;;;3.72;nan;100986.09;4991984;28;20637;-66
2023/03/03 02:52:17;;;;;;;11.07;5.40;;;3.80;99.90;;;3.66;nan;100974.25;4995401;28;20588;-65
2023/03/03 02:54:44;;;;;;;9.07;5.03;;;3.90;99.90;;;3.63;nan;100976.97;4993461;28;20211;-65
2023/03/03 02:57:12;;;;;;;8.10;5.40;;;3.80;99.90;;;3.62;nan;100971.88;4994250;28;20262;-65
2023/03/03 02:59:38;;;;;;;9.93;4.85;;;3.80;99.90;;;3.60;nan;100976.25;4994828;28;20293;-65
2023/03/03 03:02:07;;;;;;;9.85;5.45;;;3.80;99.90;;;3.58;nan;100978.00;4994137;28;20624;-66
2023/03/03 03:04:34;;;;;;;10.10;5.70;;;3.70;99.90;;;3.58;nan;100983.16;4992709;28;20199;-66
2023/03/03 03:07:02;;;;;;;12.02;5.65;;;3.70;99.90;;;3.57;nan;100984.94;4989710;28;20204;-67
2023/03/03 03:09:29;;;;;;;10.35;5.00;;;3.70;99.90;;;3.55;nan;100986.72;4991770;28;20637;-66
2023/03/03 03:11:58;;;;;;;8.95;5.90;;;3.70;99.90;;;3.51;nan;100982.59;4992282;28;20637;-65
2023/03/03 03:14:25;;;;;;;8.05;5.40;;;3.70;99.90;;;3.52;nan;100991.13;4992147;28;20551;-65
2023/03/03 03:16:52;;;;;;;9.00;5.13;;;3.70;99.90;;;3.49;nan;100973.22;4988856;28;20211;-68
2023/03/03 03:19:18;;;;;;;7.70;5.32;;;3.60;99.90;;;3.50;nan;100980.88;4974166;28;20282;-67
2023/03/03 03:21:45;;;;;;;9.68;5.90;;;3.60;99.90;;;3.49;nan;100976.63;4974632;28;20227;-66
2023/03/03 03:24:12;;;;;;;14.30;5.57;;;3.60;99.90;;;3.47;nan;100975.00;4978043;28;20642;-66
2023/03/03 03:26:39;;;;;;;10.40;6.10;;;3.60;99.90;;;3.49;nan;100979.19;4985386;28;20199;-65
2023/03/03 03:29:06;;;;;;;11.57;5.65;;;3.60;99.90;;;3.47;nan;100975.84;4990327;28;20664;-66
2023/03/03 03:31:33;;;;;;;9.50;6.25;;;3.60;99.90;;;3.47;nan;100982.75;4992123;28;20223;-66
2023/03/03 03:34:00;;;;;;;10.90;6.20;;;3.60;99.90;;;3.48;nan;100984.41;4992896;28;20265;-66
2023/03/03 03:36:27;;;;;;;9.95;6.35;;;3.60;99.90;;;3.45;nan;100989.72;4994475;28;20210;-64
2023/03/03 03:38:54;;;;;;;8.95;5.90;;;3.60;99.90;;;3.45;nan;100992.28;4994115;28;20199;-67
2023/03/03 03:41:21;;;;;;;10.95;6.10;;;3.60;99.90;;;3.43;nan;100983.78;5007612;28;20253;-66
2023/03/03 03:43:48;;;;;;;13.70;7.13;;;3.60;99.90;;;3.43;nan;100981.19;4992205;28;20714;-68
2023/03/03 03:46:15;;;;;;;10.75;5.90;;;3.60;99.90;;;3.40;nan;100984.72;4989921;28;20274;-68
2023/03/03 03:48:42;;;;;;;10.20;6.63;;;3.60;99.90;;;3.40;nan;100978.72;4991852;28;20711;-67
2023/03/03 03:51:11;;;;;;;11.02;6.93;;;3.50;99.90;;;3.40;nan;100991.59;4992119;28;20227;-66
2023/03/03 03:53:38;;;;;;;9.00;6.35;;;3.60;99.90;;;3.40;nan;100992.47;4991672;28;20590;-67
2023/03/03 03:56:06;;;;;;;9.93;6.50;;;3.50;99.90;;;3.40;nan;100997.63;4978289;28;20226;-67
2023/03/03 03:58:33;;;;;;;13.50;7.80;;;3.50;99.90;;;3.36;nan;100998.63;4990025;28;20207;-66
2023/03/03 04:01:06;;;;;;;11.90;7.30;;;3.50;99.90;;;3.33;nan;100992.72;4985621;28;20234;-66
2023/03/03 04:03:33;;;;;;;12.57;7.53;;;3.50;99.90;;;3.31;nan;100997.94;4991930;28;20211;-68
2023/03/03 04:06:00;;;;;;;9.95;6.93;;;3.50;99.90;;;3.29;nan;100998.88;4993164;28;20196;-67
2023/03/03 04:08:27;;;;;;;12.15;7.38;;;3.50;99.90;;;3.26;nan;101001.59;4991986;28;20687;-66
2023/03/03 04:10:54;;;;;;;15.55;7.85;;;3.40;99.90;;;3.26;nan;100996.44;4992989;28;20231;-66
2023/03/03 04:13:22;;;;;;;14.57;8.90;;;3.40;99.90;;;3.22;nan;100994.84;4991442;28;20293;-66
2023/03/03 04:15:49;;;;;;;14.77;8.02;;;3.40;99.90;;;3.21;nan;100991.44;4991541;28;20212;-67
2023/03/03 04:18:16;;;;;;;17.45;9.43;;;3.40;99.90;;;3.22;nan;100989.69;4992409;28;20203;-66
2023/03/03 04:20:43;;;;;;;18.02;8.50;;;3.40;99.90;;;3.22;nan;100995.69;4990495;28;20924;-66
2023/03/03 04:23:10;;;;;;;13.70;8.25;;;3.40;99.90;;;3.26;nan;100999.03;4990886;28;20203;-67
2023/03/03 04:25:37;;;;;;;14.82;9.10;;;3.40;99.90;;;3.23;nan;100996.53;4992444;28;20809;-66
2023/03/03 04:28:04;;;;;;;15.05;8.65;;;3.40;99.90;;;3.20;nan;101000.06;4992168;28;20203;-68
2023/03/03 04:30:31;;;;;;;13.93;8.60;;;3.40;99.90;;;3.14;nan;101001.13;4992181;28;20720;-67
2023/03/03 04:32:58;;;;;;;12.73;6.85;;;3.30;99.90;;;3.13;nan;100999.44;4989700;28;20250;-66
2023/03/03 04:35:25;;;;;;;11.85;5.88;;;3.30;99.90;;;3.11;nan;100996.06;4991004;28;20254;-66
2023/03/03 04:37:53;;;;;;;12.75;7.53;;;3.30;99.90;;;3.11;nan;100997.81;4986241;28;20266;-67
2023/03/03 04:40:20;;;;;;;16.67;10.23;;;3.30;99.90;;;3.05;nan;101000.59;4985029;28;20234;-67
2023/03/03 04:42:47;;;;;;;15.52;9.73;;;3.20;99.90;;;3.03;nan;101010.13;4992376;28;20200;-65
2023/03/03 04:45:14;;;;;;;13.93;9.48;;;3.20;99.90;;;3.02;nan;101005.88;4993005;28;20226;-68
2023/03/03 04:47:41;;;;;;;17.40;10.82;;;3.20;99.90;;;2.97;nan;101002.63;4991325;28;20674;-67
2023/03/03 04:50:09;;;;;;;17.08;10.13;;;3.20;99.90;;;2.95;nan;101007.84;4991643;28;20235;-66
2023/03/03 04:52:37;;;;;;;15.82;10.40;;;3.20;99.90;;;2.92;nan;101015.66;4990488;28;20203;-66
2023/03/03 04:55:04;;;;;;;15.32;9.63;;;3.10;99.90;;;2.90;nan;101012.28;4983018;28;20208;-68
2023/03/03 04:57:31;;;;;;;16.40;8.90;;;3.10;99.90;;;2.89;nan;101012.34;4990804;28;20208;-67
2023/03/03 04:59:58;;;;;;;21.83;10.77;;;3.10;99.90;;;2.88;nan;101019.25;4979553;28;20224;-66
2023/03/03 05:02:25;;;;;;;16.55;10.45;;;3.10;99.90;;;2.85;nan;101021.09;4990139;28;20206;-66
2023/03/03 05:04:52;;;;;;;15.43;7.97;;;3.00;99.90;;;2.84;nan;101020.25;4990688;28;20199;-67
2023/03/03 05:07:19;;;;;;;14.48;8.23;;;3.00;99.90;;;2.82;nan;101018.59;4990765;28;20203;-66
2023/03/03 05:09:46;;;;;;;15.88;9.32;;;3.00;99.90;;;2.81;nan;101027.25;4991188;28;20214;-65
2023/03/03 05:12:13;;;;;;;19.70;10.80;;;3.00;99.90;;;2.77;nan;101029.06;4991327;28;20207;-66
2023/03/03 05:14:41;;;;;;;17.65;10.10;;;3.00;99.90;;;2.74;nan;101039.50;4990389;28;20207;-67
2023/03/03 05:17:08;;;;;;;20.55;10.35;;;2.90;99.90;;;2.71;nan;101038.72;4989044;28;20261;-65
2023/03/03 05:19:35;;;;;;;15.63;9.52;;;2.90;99.90;;;2.64;nan;101035.50;4990344;28;20293;-66
2023/03/03 05:22:02;;;;;;;18.83;9.90;;;2.80;99.90;;;2.65;nan;101041.50;4990574;28;20222;-66
2023/03/03 05:24:29;;;;;;;15.00;8.02;;;2.80;99.90;;;2.65;nan;101050.09;4969729;28;20270;-66
2023/03/03 05:26:56;;;;;;;17.23;10.10;;;2.80;99.90;;;2.61;nan;101051.09;4988607;28;20207;-65
2023/03/03 05:29:23;;;;;;;14.45;6.43;;;2.80;99.90;;;2.60;nan;101051.16;4990193;28;20695;-66
2023/03/03 05:31:50;;;;;;;18.45;9.60;;;2.80;99.90;;;2.60;nan;101049.38;4991779;28;20283;-66
2023/03/03 05:34:17;;;;;;;18.17;9.40;;;2.80;99.90;;;2.58;nan;101048.59;4991018;28;20211;-66
2023/03/03 05:36:44;;;;;;;21.10;10.82;;;2.80;99.90;;;2.53;nan;101050.50;4986246;28;20523;-65
2023/03/03 05:39:11;;;;;;;14.90;8.80;;;2.80;99.90;;;2.53;nan;101053.06;4991008;28;20203;-66
2023/03/03 05:41:39;;;;;;;23.75;11.38;;;2.70;99.90;;;2.51;nan;101051.44;4985005;28;20589;-67
2023/03/03 05:44:06;;;;;;;21.30;12.40;;;2.70;99.90;;;2.45;nan;101057.59;4978757;28;20203;-65
2023/03/03 05:46:33;;;;;;;24.20;12.15;;;2.70;99.90;;;2.43;nan;101050.84;4991057;28;20208;-67
2023/03/03 05:49:00;;;;;;;20.70;12.25;;;2.60;99.90;;;2.38;nan;101058.72;4989012;28;20710;-65
2023/03/03 05:51:27;;;;;;;20.90;12.65;;;2.60;99.90;;;2.31;nan;101059.78;4990580;28;20285;-66
2023/03/03 05:53:55;;;;;;;27.88;12.52;;;2.50;99.90;;;2.26;nan;101059.94;4989565;28;20215;-67
2023/03/03 05:56:22;;;;;;;21.83;11.32;;;2.50;99.90;;;2.28;nan;101060.72;4987676;28;20211;-66
2023/03/03 05:58:49;;;;;;;20.55;11.63;;;2.50;99.90;;;2.30;nan;101052.94;4980705;28;20212;-67
2023/03/03 06:01:16;;;;;;;21.42;13.05;;;2.50;99.90;;;2.30;nan;101064.09;4986749;28;20290;-66
2023/03/03 06:03:43;;;;;;;19.95;11.40;;;2.50;99.90;;;2.31;nan;101070.94;5006894;28;20215;-67
2023/03/03 06:06:11;;;;;;;22.90;12.25;;;2.50;99.90;;;2.31;nan;101068.38;4992119;28;20212;-66
2023/03/03 06:08:38;;;;;;;19.58;11.32;;;2.50;99.90;;;2.30;nan;101064.09;4979908;28;20200;-67
2023/03/03 06:11:05;;;;;;;22.38;11.23;;;2.50;99.90;;;2.30;nan;101060.66;4992818;28;21010;-66
2023/03/03 06:13:32;;;;;;;24.75;13.68;;;2.40;99.90;;;2.29;nan;101067.56;4993801;28;20670;-66
2023/03/03 06:15:59;;;;;;;22.48;11.07;;;2.50;99.90;;;2.26;nan;101062.50;4992696;28;20261;-66
2023/03/03 06:18:26;;;;;;;24.80;12.35;;;2.40;99.90;;;2.30;nan;101065.81;4994525;28;20199;-67
2023/03/03 06:20:54;;;;;;;27.08;12.35;;;2.50;99.90;;;2.32;nan;101067.47;4989529;28;20227;-66
2023/03/03 06:23:21;;;;;;;23.10;13.32;;;2.50;99.90;;;2.41;nan;101078.38;4994436;28;20199;-65
2023/03/03 06:25:48;;;;;;;25.67;10.65;;;2.50;99.90;;;2.46;nan;101084.22;4994320;28;20660;-66
2023/03/03 06:28:15;;;;;;;18.88;9.68;;;2.60;99.90;;;2.53;nan;101078.84;4993112;28;20296;-66
2023/03/03 06:30:42;;;;;;;9.65;5.50;;;2.70;99.90;;;2.68;nan;101093.81;4994547;28;20219;-67
2023/03/03 06:33:10;;;;;;;19.27;9.60;;;2.80;99.90;;;2.83;nan;101089.88;4994532;28;20246;-66
2023/03/03 06:35:37;;;;;;;21.02;9.95;;;2.90;99.90;;;2.96;nan;101091.97;4994542;28;20675;-67
2023/03/03 06:38:04;;;;;;;20.50;10.00;;;3.10;99.90;;;3.15;nan;101103.34;4992256;28;20215;-68
2023/03/03 06:40:31;;;;;;;19.95;10.40;;;3.20;99.90;;;3.32;nan;101109.69;4993340;28;20595;-67
2023/03/03 06:42:58;;;;;;;18.88;10.75;;;3.40;99.90;;;3.47;nan;101111.75;4994029;28;20211;-67
2023/03/03 06:45:25;;;;;;;19.08;9.80;;;3.60;99.90;;;3.71;nan;101110.84;4993917;28;20211;-67
2023/03/03 06:47:51;;;;;;;21.98;10.88;;;3.80;99.90;;;4.05;nan;101121.63;4993525;28;20664;-66
2023/03/03 06:50:20;;;;;;;23.58;12.50;;;4.10;99.90;;;4.43;nan;101127.94;4990248;28;20236;-66
2023/03/03 06:52:47;;;;;;;24.90;13.43;;;4.50;99.90;;;4.77;nan;101135.19;4986370;28;20207;-66
2023/03/03 06:55:23;;;;;;;15.63;8.55;;;4.80;99.90;;;5.07;nan;101139.94;4993079;28;20233;-65
2023/03/03 06:57:50;;;;;;;23.15;13.10;;;5.10;99.90;;;5.29;nan;101134.72;4988387;28;20199;-65
2023/03/03 07:00:24;;;;;;;21.63;11.82;;;5.40;99.90;;;5.47;nan;101139.13;4982911;28;20902;-66
2023/03/03 07:03:06;;;;;;;17.75;10.57;;;5.60;99.90;;;5.71;nan;101126.88;5007155;28;20203;-65
2023/03/03 07:05:33;;;;;;;18.45;9.65;;;5.80;99.90;;;6.00;nan;101134.22;4993677;28;20206;-66
2023/03/03 07:08:00;;;;;;;26.92;12.57;;;6.10;99.90;;;6.34;nan;101138.69;4993491;28;20578;-67
2023/03/03 07:10:30;;;;;;;25.38;12.27;;;6.40;99.90;;;6.68;nan;101147.41;4991468;28;20285;-66
2023/03/03 07:13:23;;;;;;;20.47;10.17;;;6.80;99.90;;;7.10;nan;101141.88;4990736;28;20195;-66
2023/03/03 07:15:52;;;;;;;17.27;10.00;;;7.20;99.90;;;7.47;nan;101140.88;4972759;28;20713;-66
2023/03/03 07:18:39;;;;;;;18.43;9.97;;;7.60;99.90;;;7.70;nan;101137.94;4989772;28;20642;-64
2023/03/03 07:21:21;;;;;;;26.97;13.57;;;7.80;99.90;;;8.13;nan;101149.50;4994276;28;20673;-66
2023/03/03 07:23:51;;;;;;;29.07;13.80;;;8.30;99.90;;;8.51;nan;101153.50;4993662;28;20617;-66
2023/03/03 07:26:22;;;;;;;27.97;14.63;;;8.70;99.90;;;8.96;nan;101157.88;4993370;28;20704;-66
2023/03/03 07:29:03;;;;;;;28.83;13.80;;;9.20;99.90;;;9.15;nan;101159.34;5006724;28;20638;-66
2023/03/03 07:31:38;;;;;;;29.50;16.40;;;9.50;99.90;;;9.35;nan;101164.22;4983547;28;21237;-67
2023/03/03 07:34:20;;;;;;;23.20;13.20;;;9.70;99.90;;;9.53;nan;101166.69;4988383;28;20638;-66
2023/03/03 07:36:54;;;;;;;27.87;15.23;;;9.90;99.70;;;9.88;nan;101168.03;4990168;28;21205;-66
2023/03/03 07:39:38;;;;;;;29.20;15.40;;;10.30;98.90;;;10.11;nan;101170.09;4976476;28;20610;-68
2023/03/03 07:42:41;;;;;;;25.53;15.47;;;10.60;97.80;;;10.65;nan;101171.84;4990714;28;21041;-66
2023/03/03 07:45:34;;;;;;;28.23;14.20;;;11.10;96.80;;;10.67;nan;101180.44;4983421;28;21496;-66
2023/03/03 07:48:30;;;;;;;28.17;13.50;;;11.30;95.60;;;10.85;nan;101181.03;4990920;28;20638;-66
2023/03/03 07:51:10;;;;;;;28.57;14.43;;;11.40;95.20;;;11.19;nan;101179.66;4993983;28;20712;-66
2023/03/03 07:53:38;;;;;;;24.30;13.43;;;11.80;93.70;;;11.75;nan;101181.16;4990922;28;20630;-65
2023/03/03 07:56:33;;;;;;;25.77;12.93;;;12.30;93.10;;;12.09;nan;101176.13;4993606;28;20634;-66
2023/03/03 07:59:19;;;;;;;26.90;15.87;;;12.80;91.20;;;12.64;nan;101182.69;4992464;28;20630;-66
2023/03/03 08:01:50;;;;;;;31.97;16.67;;;13.20;90.00;;;13.03;nan;101185.03;4992677;28;20674;-66
2023/03/03 08:04:41;;;;;;;32.83;19.10;;;13.70;86.80;;;13.76;nan;101203.97;4989003;28;21260;-65
2023/03/03 08:07:16;;;;;;;30.00;18.23;;;14.40;83.30;;;13.89;nan;101210.81;4990843;28;20980;-66
2023/03/03 08:09:50;;;;;;;33.53;20.93;;;14.70;80.70;;;13.83;nan;101203.41;4991547;28;20703;-66
2023/03/03 08:12:41;;;;;;;25.37;15.37;;;14.70;79.10;;;13.56;nan;101207.28;4990921;28;20644;-66
2023/03/03 08:15:18;;;;;;;33.30;17.50;;;14.60;78.20;;;13.32;nan;101204.72;4982539;28;20638;-67
2023/03/03 08:17:46;;;;;;;30.63;19.93;;;14.30;78.10;;;13.12;nan;101210.56;4992397;28;20626;-66
2023/03/03 08:20:42;;;;;;;30.47;21.37;;;14.20;78.10;;;13.42;nan;101208.31;5006394;28;20711;-66
2023/03/03 08:23:10;;;;;;;28.67;20.80;;;14.30;77.70;;;12.55;nan;101212.13;4990602;28;20638;-66
2023/03/03 08:25:38;;;;;;;31.57;18.27;;;13.70;78.70;;;12.95;nan;101214.41;4991075;28;20680;-66
2023/03/03 08:28:05;;;;;;;29.20;20.77;;;13.70;79.40;;;13.67;nan;101216.00;4976963;28;20639;-66
2023/03/03 08:30:32;;;;;;;28.57;20.10;;;14.40;77.20;;;14.07;nan;101211.19;4991570;28;21281;-66
2023/03/03 08:33:00;;;;;;;30.83;21.60;;;15.00;75.30;;;14.20;nan;101216.31;4991973;28;20664;-67
2023/03/03 08:35:27;;;;;;;30.47;20.83;;;15.00;74.70;;;14.03;nan;101223.69;4979543;28;20708;-66
2023/03/03 08:37:54;;;;;;;28.80;19.40;;;15.20;73.40;;;14.68;nan;101223.00;4992068;28;20700;-65
2023/03/03 08:40:21;;;;;;;35.53;22.70;;;15.50;72.90;;;14.41;nan;101227.81;4992414;28;21045;-66
2023/03/03 08:42:48;;;;;;;32.50;20.67;;;15.40;72.10;;;14.31;nan;101219.78;4990266;28;21209;-66
2023/03/03 08:45:15;;;;;;;24.97;12.83;;;15.30;72.10;;;14.95;nan;101230.47;4991385;28;21036;-67
2023/03/03 08:47:43;;;;;;;31.40;20.03;;;15.70;71.70;;;15.33;nan;101215.84;4984905;28;20694;-66
2023/03/03 08:50:12;;;;;;;30.40;15.50;;;16.10;70.80;;;16.13;nan;101219.59;4985403;28;20666;-67
2023/03/03 08:52:39;;;;;;;29.60;19.63;;;16.70;69.70;;;16.76;nan;101218.44;4970315;28;20658;-67
2023/03/03 08:55:07;;;;;;;29.50;20.60;;;17.50;67.30;;;17.03;nan;101225.69;4989715;28;20642;-65
2023/03/03 08:57:35;;;;;;;34.73;18.97;;;17.90;65.50;;;16.47;nan;101230.66;4989473;28;21178;-65
2023/03/03 09:00:02;;;;;;;31.10;20.57;;;17.40;65.20;;;16.69;nan;101222.59;4985418;28;20667;-65
2023/03/03 09:02:29;;;;;;;31.30;21.03;;;17.60;64.80;;;16.78;nan;101229.66;4987729;28;20670;-66
2023/03/03 09:04:56;;;;;;;29.20;22.70;;;17.70;64.00;;;16.96;nan;101228.03;4989636;28;20861;-65
2023/03/03 09:07:23;;;;;;;26.27;15.50;;;17.90;63.70;;;17.52;nan;101236.16;4989002;28;20641;-66
2023/03/03 09:09:50;;;;;;;29.10;16.83;;;18.20;63.70;;;18.00;nan;101235.22;4986155;28;20692;-67
2023/03/03 09:12:27;;;;;;;30.97;20.37;;;18.80;62.30;;;18.24;nan;101246.13;5001875;28;21271;-65
2023/03/03 09:15:02;;;;;;;34.63;22.30;;;19.10;60.90;;;17.99;nan;101239.69;4990466;28;20635;-66
2023/03/03 09:17:34;;;;;;;29.90;20.63;;;19.10;59.70;;;18.09;nan;101229.91;4989800;28;20633;-66
2023/03/03 09:20:36;;;;;;;30.97;21.40;;;19.10;59.70;;;17.18;nan;101234.03;4989399;28;20643;-67
2023/03/03 09:23:41;;;;;;;27.50;22.83;;;18.40;60.20;;;17.00;nan;101233.88;4991748;28;20684;-66
2023/03/03 09:26:44;;;;;;;31.23;19.53;;;17.90;61.00;;;16.96;nan;101241.22;4991822;28;20622;-65
2023/03/03 09:29:14;;;;;;;30.73;19.87;;;17.80;61.40;;;17.66;nan;101233.06;4991365;28;20715;-65
2023/03/03 09:31:50;;;;;;;35.90;18.03;;;18.60;60.20;;;18.43;nan;101238.13;4991634;28;20753;-66
2023/03/03 09:34:32;;;;;;;29.60;21.30;;;19.10;59.70;;;19.47;nan;101241.09;4983153;28;20638;-65
2023/03/03 09:36:59;;;;;;;22.30;13.87;;;20.10;57.60;;;19.87;nan;101238.75;4991657;28;20638;-66
2023/03/03 09:39:30;;;;;;;31.00;19.67;;;20.60;56.40;;;20.32;nan;101233.25;4986061;28;20687;-66
2023/03/03 09:42:27;;;;;;;33.03;21.53;;;21.40;55.10;;;19.77;nan;101238.03;4982672;28;21250;-66
2023/03/03 09:45:06;;;;;;;32.57;18.07;;;21.20;54.00;;;20.37;nan;101241.56;4991337;28;20642;-66
2023/03/03 09:47:54;;;;;;;34.03;20.30;;;21.20;54.60;;;20.79;nan;101242.41;4990171;28;20653;-66
2023/03/03 09:50:49;;;;;;;30.90;17.33;;;21.90;53.10;;;21.15;nan;101244.81;4991131;28;20727;-68
2023/03/03 09:53:46;;;;;;;33.50;20.20;;;22.20;52.40;;;22.36;nan;101243.72;4983990;28;21349;-66
2023/03/03 09:56:32;;;;;;;32.90;21.53;;;23.10;51.60;;;22.47;nan;101252.34;4990170;28;21209;-67
2023/03/03 09:59:18;;;;;;;31.03;17.30;;;23.30;50.70;;;22.07;nan;101250.63;4990305;28;20635;-67
2023/03/03 10:02:22;;;;;;;31.60;20.57;;;23.20;50.20;;;22.04;nan;101258.97;4989562;28;20724;-65
2023/03/03 10:05:20;;;;;;;30.27;23.53;;;23.00;50.20;;;20.86;nan;101250.53;5003165;28;21041;-66
2023/03/03 10:07:56;;;;;;;34.90;20.30;;;22.20;50.60;;;20.72;nan;101251.97;4980281;28;20638;-65
2023/03/03 10:10:47;;;;;;;30.50;22.63;;;21.80;51.30;;;20.78;nan;101247.88;4987566;28;20692;-65
2023/03/03 10:13:48;;;;;;;33.47;22.53;;;21.70;51.10;;;21.22;nan;101246.66;4989764;28;20697;-65
2023/03/03 10:16:31;;;;;;;33.43;18.87;;;22.10;50.80;;;21.37;nan;101257.47;4991705;28;20704;-65
2023/03/03 10:19:09;;;;;;;34.73;23.77;;;22.30;50.50;;;22.07;nan;101255.94;4991660;28;21045;-67
2023/03/03 10:21:49;;;;;;;28.90;20.60;;;22.90;50.00;;;21.34;nan;101260.44;4990060;28;20760;-65
2023/03/03 10:24:28;;;;;;;33.70;21.43;;;22.60;49.90;;;21.78;nan;101251.16;4990398;28;20634;-65
2023/03/03 10:27:07;;;;;;;33.53;22.70;;;22.70;50.00;;;21.43;nan;101256.78;4989384;28;20634;-65
2023/03/03 10:30:12;;;;;;;31.90;23.17;;;22.50;49.90;;;21.32;nan;101260.59;4971548;28;20627;-66
2023/03/03 10:32:55;;;;;;;31.30;20.10;;;22.30;49.90;;;21.24;nan;101260.59;4979571;28;20710;-65
2023/03/03 10:35:36;;;;;;;28.90;20.97;;;22.20;50.30;;;21.53;nan;101252.97;4982191;28;20637;-65
2023/03/03 10:38:21;;;;;;;34.07;20.63;;;22.50;49.50;;;20.99;nan;101235.00;4982286;28;20634;-66
2023/03/03 10:41:10;;;;;;;32.50;19.33;;;22.00;50.30;;;21.09;nan;101237.50;5005130;23;20686;-65
2023/03/03 10:43:53;;;;;;;26.20;19.20;;;22.10;50.80;;;21.47;nan;101240.38;4981734;28;20666;-67
2023/03/03 10:46:45;;;;;;;33.23;22.73;;;22.30;50.10;;;20.81;nan;101240.41;4987415;28;20638;-67
2023/03/03 10:49:58;;;;;;;35.27;23.07;;;21.70;50.60;;;20.72;nan;101240.56;4986147;28;20642;-68
2023/03/03 10:52:50;;;;;;;34.80;21.37;;;21.40;51.10;;;19.39;nan;101240.19;4986964;28;20664;-67